Time;durP1;ratioP1;P1;durP2;ratioP2;P2;SDS_P1;SDS_P2;PMS_P1;PMS_P2;Temp;Humidity;BMP_temperature;BMP_pressure;BME280_temperature;BME280_humidity;BME280_pressure;Samples;Min_cycle;Max_cycle;Signal;HPM_P1;HPM_P2
2023/01/20 00:01:10;;;;;;;1.95;0.50;;;9.50;99.90;;;;;;5046306;28;20479;-74
2023/01/20 00:03:37;;;;;;;1.42;0.50;;;9.50;99.90;;;;;;5043840;28;20572;-74
2023/01/20 00:06:02;;;;;;;2.90;0.70;;;9.50;99.90;;;;;;5049031;28;20483;-73
2023/01/20 00:08:30;;;;;;;1.83;0.60;;;9.40;99.90;;;;;;5050620;28;20076;-74
2023/01/20 00:10:55;;;;;;;2.55;0.80;;;9.40;99.90;;;;;;5046915;28;20104;-73
2023/01/20 00:13:21;;;;;;;2.22;0.60;;;9.30;99.90;;;;;;5047914;28;20093;-73
2023/01/20 00:15:47;;;;;;;1.70;0.82;;;9.30;99.90;;;;;;5044296;28;20020;-74
2023/01/20 00:18:13;;;;;;;1.70;0.52;;;9.30;99.90;;;;;;5042770;28;20032;-73
2023/01/20 00:20:39;;;;;;;2.17;0.85;;;9.30;99.90;;;;;;5044888;28;20029;-75
2023/01/20 00:23:05;;;;;;;3.15;0.70;;;9.20;99.90;;;;;;5047288;28;20102;-73
2023/01/20 00:25:33;;;;;;;1.80;0.60;;;9.20;99.90;;;;;;5049605;28;20030;-73
2023/01/20 00:27:59;;;;;;;2.25;0.60;;;9.10;99.90;;;;;;5044834;28;20499;-73
2023/01/20 00:30:25;;;;;;;2.38;0.77;;;9.10;99.90;;;;;;5050841;28;20033;-73
2023/01/20 00:32:52;;;;;;;2.22;0.80;;;9.00;99.90;;;;;;5050447;28;20028;-74
2023/01/20 00:35:17;;;;;;;2.30;0.82;;;9.00;99.90;;;;;;5050629;28;20613;-73
2023/01/20 00:37:43;;;;;;;1.92;0.73;;;8.90;99.90;;;;;;5050182;28;20025;-73
2023/01/20 00:40:09;;;;;;;1.85;0.65;;;8.90;99.90;;;;;;5053016;28;20025;-74
2023/01/20 00:42:36;;;;;;;3.90;0.68;;;8.80;99.90;;;;;;5051969;28;20123;-73
2023/01/20 00:45:02;;;;;;;2.30;0.90;;;8.80;99.90;;;;;;5046643;28;20060;-73
2023/01/20 00:47:28;;;;;;;3.33;1.15;;;8.80;99.90;;;;;;5041021;28;20061;-73
2023/01/20 00:49:54;;;;;;;3.20;0.60;;;8.80;99.90;;;;;;5050098;28;20029;-74
2023/01/20 00:52:20;;;;;;;2.20;0.70;;;8.70;99.90;;;;;;5068249;28;20033;-73
2023/01/20 00:54:46;;;;;;;3.03;0.90;;;8.60;99.90;;;;;;5050878;28;20460;-73
2023/01/20 00:57:11;;;;;;;1.95;0.60;;;8.60;99.90;;;;;;5049338;28;20488;-73
2023/01/20 00:59:37;;;;;;;2.13;0.80;;;8.50;99.90;;;;;;5051907;28;20029;-73
2023/01/20 01:02:03;;;;;;;2.70;1.10;;;8.40;99.90;;;;;;5049218;28;20362;-73
2023/01/20 01:04:30;;;;;;;3.53;0.60;;;8.40;99.90;;;;;;5051524;28;20627;-72
2023/01/20 01:06:56;;;;;;;3.58;0.85;;;8.30;99.90;;;;;;5049150;28;20125;-73
2023/01/20 01:09:22;;;;;;;2.25;1.02;;;8.30;99.90;;;;;;5049270;28;20036;-72
2023/01/20 01:11:48;;;;;;;1.88;0.63;;;8.30;99.90;;;;;;5064633;28;20033;-74
2023/01/20 01:14:14;;;;;;;2.30;1.00;;;8.10;99.90;;;;;;5051809;28;20021;-73
2023/01/20 01:16:39;;;;;;;1.85;0.70;;;8.00;99.90;;;;;;5050679;28;20027;-73
2023/01/20 01:19:05;;;;;;;2.13;0.70;;;8.10;99.90;;;;;;5050649;28;20033;-74
2023/01/20 01:21:31;;;;;;;2.38;0.70;;;8.10;99.90;;;;;;5050904;28;20094;-73
2023/01/20 01:23:57;;;;;;;2.25;1.00;;;8.20;99.90;;;;;;5049606;28;20060;-73
2023/01/20 01:26:22;;;;;;;2.20;0.93;;;8.20;99.90;;;;;;5051104;28;20054;-74
2023/01/20 01:28:49;;;;;;;3.03;1.50;;;8.20;99.90;;;;;;5049855;28;20436;-73
2023/01/20 01:31:17;;;;;;;4.47;1.00;;;8.20;99.90;;;;;;5051183;28;20147;-74
2023/01/20 01:33:44;;;;;;;2.17;0.85;;;8.10;99.90;;;;;;5049321;28;20019;-73
2023/01/20 01:36:14;;;;;;;2.08;0.60;;;8.20;99.90;;;;;;5046750;28;20086;-72
2023/01/20 01:38:40;;;;;;;2.67;1.00;;;8.10;99.90;;;;;;5051633;28;20029;-72
2023/01/20 01:41:06;;;;;;;1.88;0.70;;;8.00;99.90;;;;;;5048072;28;20048;-73
2023/01/20 01:43:36;;;;;;;1.98;0.80;;;8.00;99.90;;;;;;5049349;28;20112;-72
2023/01/20 01:46:03;;;;;;;2.28;0.80;;;7.90;99.90;;;;;;5047671;28;20029;-73
2023/01/20 01:48:35;;;;;;;2.83;0.70;;;7.90;99.90;;;;;;5050125;28;20028;-72
2023/01/20 01:51:18;;;;;;;2.03;0.88;;;7.80;99.90;;;;;;5049137;28;20029;-73
2023/01/20 01:53:56;;;;;;;2.25;1.10;;;7.90;99.90;;;;;;5050745;28;20449;-73
2023/01/20 01:56:25;;;;;;;2.30;0.80;;;7.90;99.90;;;;;;5051457;28;20490;-73
2023/01/20 01:58:54;;;;;;;1.92;0.70;;;7.90;99.90;;;;;;5045198;28;20037;-72
2023/01/20 02:01:20;;;;;;;1.73;0.70;;;7.80;99.90;;;;;;5054091;28;20043;-72
2023/01/20 02:03:57;;;;;;;1.88;0.70;;;7.80;99.90;;;;;;5034029;28;20033;-73
2023/01/20 02:06:28;;;;;;;3.53;1.10;;;7.70;99.90;;;;;;5044760;28;20104;-73
2023/01/20 02:08:54;;;;;;;2.60;1.10;;;7.80;99.90;;;;;;5047185;28;20029;-72
2023/01/20 02:11:20;;;;;;;1.70;0.70;;;7.80;99.90;;;;;;5047144;28;20029;-72
2023/01/20 02:13:47;;;;;;;1.65;0.65;;;7.70;99.90;;;;;;5047548;28;20079;-72
2023/01/20 02:16:19;;;;;;;3.20;1.42;;;7.80;99.90;;;;;;5048243;28;20364;-73
2023/01/20 02:19:00;;;;;;;1.80;0.80;;;7.70;99.90;;;;;;5048528;28;20075;-72
2023/01/20 02:21:44;;;;;;;2.42;0.80;;;7.70;99.90;;;;;;5049533;28;20044;-72
2023/01/20 02:24:37;;;;;;;1.35;0.43;;;7.70;99.90;;;;;;5047038;28;20037;-73
2023/01/20 02:27:22;;;;;;;1.40;0.50;;;7.70;99.90;;;;;;5050099;28;20036;-73
2023/01/20 02:30:30;;;;;;;1.55;0.60;;;7.80;99.90;;;;;;5049117;28;20057;-72
2023/01/20 02:33:07;;;;;;;4.18;0.70;;;7.80;99.90;;;;;;5048861;28;20183;-73
2023/01/20 02:35:48;;;;;;;2.10;0.70;;;7.70;99.90;;;;;;5050223;28;20025;-73
2023/01/20 02:38:20;;;;;;;2.15;0.70;;;7.70;99.90;;;;;;5048947;28;20025;-72
2023/01/20 02:41:03;;;;;;;3.30;0.90;;;7.70;99.90;;;;;;5042391;28;20045;-72
2023/01/20 02:43:34;;;;;;;2.53;0.70;;;7.60;99.90;;;;;;5043383;28;20096;-73
2023/01/20 02:46:08;;;;;;;2.38;0.70;;;7.60;99.90;;;;;;5050057;28;20040;-73
2023/01/20 02:48:43;;;;;;;2.08;0.57;;;7.50;99.90;;;;;;5049034;28;20080;-72
2023/01/20 02:51:17;;;;;;;2.15;0.60;;;7.50;99.90;;;;;;5046845;28;20029;-72
2023/01/20 02:54:03;;;;;;;1.95;0.60;;;7.40;99.90;;;;;;5061964;28;20032;-73
2023/01/20 02:56:30;;;;;;;2.20;0.70;;;7.40;99.90;;;;;;5047356;28;20044;-73
2023/01/20 02:59:04;;;;;;;1.50;0.47;;;7.30;99.90;;;;;;5047865;28;20030;-72
2023/01/20 03:01:34;;;;;;;;;;;7.20;99.90;;;;;;5047467;28;20083;-73
2023/01/20 03:04:03;;;;;;;2.00;1.02;;;7.10;99.90;;;;;;5050056;28;20282;-71
2023/01/20 03:06:34;;;;;;;2.70;0.60;;;7.10;99.90;;;;;;5048795;28;20028;-73
2023/01/20 03:09:04;;;;;;;2.00;0.90;;;7.20;99.90;;;;;;5047310;28;20064;-72
2023/01/20 03:11:32;;;;;;;1.90;0.70;;;7.00;99.90;;;;;;5048494;28;20037;-73
2023/01/20 03:14:08;;;;;;;1.52;0.50;;;7.00;99.90;;;;;;5046991;28;20036;-73
2023/01/20 03:16:34;;;;;;;2.42;0.88;;;6.90;99.90;;;;;;5042601;28;20029;-73
2023/01/20 03:19:00;;;;;;;2.70;0.60;;;6.80;99.90;;;;;;5044662;28;20087;-72
2023/01/20 03:21:26;;;;;;;2.53;0.70;;;6.80;99.90;;;;;;5048155;28;20060;-72
2023/01/20 03:23:54;;;;;;;2.97;1.30;;;6.80;99.90;;;;;;5044789;28;20471;-73
2023/01/20 03:26:22;;;;;;;1.90;0.70;;;6.70;99.90;;;;;;5048588;28;20061;-72
2023/01/20 03:28:48;;;;;;;2.75;0.70;;;6.70;99.90;;;;;;5047302;28;20029;-72
2023/01/20 03:31:17;;;;;;;2.17;0.60;;;6.70;99.90;;;;;;5047121;28;20108;-73
2023/01/20 03:33:45;;;;;;;3.92;1.10;;;6.70;99.90;;;;;;5044379;28;20386;-72
2023/01/20 03:36:13;;;;;;;2.83;0.88;;;6.60;99.90;;;;;;5046291;28;20116;-73
2023/01/20 03:38:39;;;;;;;2.05;0.73;;;6.60;99.90;;;;;;5060541;28;20032;-73
2023/01/20 03:41:40;;;;;;;2.05;0.70;;;6.70;99.90;;;;;;5047341;28;20036;-73
2023/01/20 03:44:11;;;;;;;1.90;0.60;;;6.80;99.90;;;;;;5041053;28;20488;-72
2023/01/20 03:47:08;;;;;;;2.47;0.80;;;6.70;99.90;;;;;;5047676;28;20024;-72
2023/01/20 03:50:07;;;;;;;3.35;0.80;;;6.70;99.90;;;;;;5048174;28;20120;-73
2023/01/20 03:53:01;;;;;;;2.50;0.90;;;6.70;99.90;;;;;;5046365;28;20030;-73
2023/01/20 03:55:39;;;;;;;2.38;0.70;;;6.60;99.90;;;;;;5050937;28;20064;-74
2023/01/20 03:58:15;;;;;;;2.08;0.70;;;6.80;99.90;;;;;;5047573;28;20472;-73
2023/01/20 04:00:45;;;;;;;2.45;0.77;;;6.80;99.90;;;;;;5046503;28;20048;-73
2023/01/20 04:03:31;;;;;;;2.97;0.75;;;6.70;99.90;;;;;;5046207;28;20053;-72
2023/01/20 04:06:01;;;;;;;2.97;0.68;;;6.60;99.90;;;;;;5044891;28;20472;-73
2023/01/20 04:08:34;;;;;;;3.15;0.90;;;6.50;99.90;;;;;;5029269;28;20082;-73
2023/01/20 04:11:04;;;;;;;2.47;0.90;;;6.50;99.90;;;;;;5046035;28;20383;-72
2023/01/20 04:13:30;;;;;;;2.08;0.85;;;6.50;99.90;;;;;;5047118;28;20034;-73
2023/01/20 04:15:58;;;;;;;4.47;0.70;;;6.50;99.90;;;;;;5045360;28;20033;-73
2023/01/20 04:18:24;;;;;;;3.65;1.02;;;6.50;99.90;;;;;;5046608;28;20455;-72
2023/01/20 04:20:55;;;;;;;1.92;0.65;;;6.40;99.90;;;;;;5062594;28;20056;-73
2023/01/20 04:23:41;;;;;;;2.80;1.05;;;6.50;99.90;;;;;;5046416;28;20045;-73
2023/01/20 04:26:07;;;;;;;2.83;0.70;;;6.40;99.90;;;;;;5043169;28;20064;-73
2023/01/20 04:28:32;;;;;;;1.80;0.80;;;6.40;99.90;;;;;;5047658;28;20029;-72
2023/01/20 04:30:58;;;;;;;2.47;0.88;;;6.30;99.90;;;;;;5042603;28;20021;-72
2023/01/20 04:33:24;;;;;;;1.95;0.90;;;6.30;99.90;;;;;;5031586;28;20039;-73
2023/01/20 04:35:50;;;;;;;2.17;0.70;;;6.40;99.90;;;;;;5044528;28;20048;-73
2023/01/20 04:38:16;;;;;;;3.60;1.00;;;6.60;99.90;;;;;;5061017;28;20025;-73
2023/01/20 04:40:43;;;;;;;3.33;1.00;;;6.50;99.90;;;;;;5045373;28;20120;-74
2023/01/20 04:43:10;;;;;;;2.42;0.80;;;6.40;99.90;;;;;;5045024;28;20939;-73
2023/01/20 04:45:37;;;;;;;3.78;0.90;;;6.40;99.90;;;;;;5044643;28;20029;-72
2023/01/20 04:48:07;;;;;;;4.18;0.90;;;6.50;99.90;;;;;;5046306;28;20033;-74
2023/01/20 04:50:37;;;;;;;3.15;0.82;;;6.60;99.90;;;;;;5045296;28;20507;-73
2023/01/20 04:53:02;;;;;;;2.47;0.80;;;6.70;99.90;;;;;;5060780;28;20021;-73
2023/01/20 04:55:28;;;;;;;3.03;0.90;;;6.60;99.90;;;;;;5045288;28;20464;-72
2023/01/20 04:57:54;;;;;;;2.95;1.08;;;6.50;99.90;;;;;;5046465;28;20040;-73
2023/01/20 05:00:20;;;;;;;4.18;0.82;;;6.50;99.90;;;;;;5044422;28;20036;-73
2023/01/20 05:02:46;;;;;;;2.70;0.88;;;6.60;99.90;;;;;;5042169;28;20052;-73
2023/01/20 05:05:12;;;;;;;2.63;1.45;;;6.70;99.90;;;;;;5043449;28;20404;-72
2023/01/20 05:07:38;;;;;;;2.65;0.93;;;6.70;99.90;;;;;;5053866;28;20079;-72
2023/01/20 05:10:05;;;;;;;4.32;1.02;;;6.70;99.90;;;;;;5059883;28;20033;-73
2023/01/20 05:12:31;;;;;;;3.83;1.02;;;6.70;99.90;;;;;;5044633;28;20037;-72
2023/01/20 05:14:57;;;;;;;2.67;0.75;;;6.60;99.90;;;;;;5059888;28;20078;-72
2023/01/20 05:17:25;;;;;;;5.20;1.05;;;6.50;99.90;;;;;;5047709;28;20487;-73
2023/01/20 05:19:51;;;;;;;2.63;0.82;;;6.50;99.90;;;;;;5047788;28;20124;-72
2023/01/20 05:22:17;;;;;;;2.40;0.70;;;6.50;99.90;;;;;;5047411;28;20167;-72
2023/01/20 05:24:43;;;;;;;2.95;0.80;;;6.70;99.90;;;;;;5049610;28;20138;-73
2023/01/20 05:27:09;;;;;;;4.43;0.80;;;6.70;99.90;;;;;;5052748;28;20079;-71
2023/01/20 05:29:34;;;;;;;3.42;0.93;;;6.70;99.90;;;;;;5046975;28;20032;-72
2023/01/20 05:32:00;;;;;;;3.80;0.93;;;6.70;99.90;;;;;;5048845;28;20021;-72
2023/01/20 05:34:26;;;;;;;3.95;1.13;;;6.60;99.90;;;;;;5044973;28;20091;-73
2023/01/20 05:36:53;;;;;;;5.10;1.30;;;6.60;99.90;;;;;;5047810;28;20026;-72
2023/01/20 05:39:20;;;;;;;2.15;0.70;;;6.50;99.90;;;;;;5050439;28;20527;-73
2023/01/20 05:41:46;;;;;;;3.20;0.70;;;6.40;99.90;;;;;;5049167;28;20058;-73
2023/01/20 05:44:13;;;;;;;4.07;1.08;;;6.50;99.90;;;;;;5049688;28;20056;-73
2023/01/20 05:46:39;;;;;;;3.75;1.20;;;6.50;99.90;;;;;;5046794;28;20025;-73
2023/01/20 05:49:05;;;;;;;4.45;1.00;;;6.60;99.90;;;;;;5049061;28;20040;-73
2023/01/20 05:51:31;;;;;;;2.08;0.55;;;6.50;99.90;;;;;;5047783;28;20118;-72
2023/01/20 05:53:57;;;;;;;4.00;1.00;;;6.40;99.90;;;;;;5050894;28;20495;-72
2023/01/20 05:56:22;;;;;;;2.63;1.00;;;6.40;99.90;;;;;;5062701;28;20038;-72
2023/01/20 05:58:52;;;;;;;4.57;0.80;;;6.30;99.90;;;;;;5052672;28;20029;-72
2023/01/20 06:01:18;;;;;;;4.13;1.60;;;6.40;99.90;;;;;;5044276;28;20411;-73
2023/01/20 06:03:43;;;;;;;5.55;0.98;;;6.30;99.90;;;;;;5051508;28;20036;-74
2023/01/20 06:06:14;;;;;;;2.42;0.88;;;6.30;99.90;;;;;;5044661;28;20033;-73
2023/01/20 06:08:41;;;;;;;5.45;1.10;;;6.20;99.90;;;;;;5048699;28;20048;-72
2023/01/20 06:11:07;;;;;;;2.92;0.93;;;6.10;99.90;;;;;;5043553;28;20025;-73
2023/01/20 06:13:34;;;;;;;4.15;0.93;;;6.10;99.90;;;;;;5049823;28;20353;-72
2023/01/20 06:16:00;;;;;;;3.13;0.80;;;6.10;99.90;;;;;;5047804;28;20064;-73
2023/01/20 06:18:26;;;;;;;5.03;1.08;;;6.10;99.90;;;;;;5049519;28;20120;-73
2023/01/20 06:20:57;;;;;;;6.00;0.80;;;6.20;99.90;;;;;;5047778;28;20547;-73
2023/01/20 06:23:23;;;;;;;4.10;1.13;;;6.10;99.90;;;;;;5048875;28;20123;-73
2023/01/20 06:26:02;;;;;;;2.45;0.70;;;6.00;99.90;;;;;;5048737;28;20057;-73
2023/01/20 06:28:28;;;;;;;3.10;0.82;;;6.00;99.90;;;;;;5048101;28;20040;-73
2023/01/20 06:31:05;;;;;;;6.75;1.15;;;5.90;99.90;;;;;;5049063;28;20168;-73
2023/01/20 06:33:32;;;;;;;2.60;0.80;;;6.00;99.90;;;;;;5045500;28;20035;-73
2023/01/20 06:35:58;;;;;;;3.50;1.08;;;6.10;99.90;;;;;;5050085;28;20033;-73
2023/01/20 06:38:27;;;;;;;4.82;1.33;;;6.10;99.90;;;;;;5048435;28;20033;-73
2023/01/20 06:41:00;;;;;;;3.83;1.27;;;6.10;99.90;;;;;;5049574;28;20455;-73
2023/01/20 06:43:31;;;;;;;3.58;0.90;;;6.10;99.90;;;;;;5041770;28;20487;-76
2023/01/20 06:46:01;;;;;;;6.63;1.20;;;5.90;99.90;;;;;;5063344;28;20044;-72
2023/01/20 06:48:27;;;;;;;5.22;1.02;;;5.80;99.90;;;;;;5052981;28;20708;-73
2023/01/20 06:50:53;;;;;;;6.45;1.00;;;5.70;99.90;;;;;;5046438;28;20065;-73
2023/01/20 06:53:19;;;;;;;6.70;2.25;;;5.80;99.90;;;;;;5044501;28;20072;-72
2023/01/20 06:55:53;;;;;;;5.38;1.40;;;5.80;99.90;;;;;;5046989;28;20445;-73
2023/01/20 06:58:19;;;;;;;5.00;1.20;;;5.80;99.90;;;;;;5062284;28;20032;-72
2023/01/20 07:00:46;;;;;;;5.80;1.10;;;5.80;99.90;;;;;;5046536;28;20025;-74
2023/01/20 07:03:12;;;;;;;4.72;1.50;;;5.70;99.90;;;;;;5045113;28;20021;-73
2023/01/20 07:05:37;;;;;;;6.10;1.35;;;5.70;99.90;;;;;;5045973;28;20048;-72
2023/01/20 07:08:03;;;;;;;6.45;1.40;;;5.70;99.90;;;;;;5047739;28;20048;-75
2023/01/20 07:10:29;;;;;;;4.63;1.83;;;5.80;99.90;;;;;;5047164;28;20086;-73
2023/01/20 07:12:56;;;;;;;5.50;1.40;;;5.90;99.90;;;;;;5050337;28;20037;-72
2023/01/20 07:15:23;;;;;;;6.47;1.45;;;5.90;99.90;;;;;;5045902;28;20633;-73
2023/01/20 07:17:48;;;;;;;8.00;1.50;;;5.90;99.90;;;;;;5049026;28;20032;-73
2023/01/20 07:20:14;;;;;;;8.02;1.42;;;5.90;99.90;;;;;;5047464;28;20029;-73
2023/01/20 07:22:41;;;;;;;4.07;2.28;;;5.90;99.90;;;;;;5049212;28;20391;-73
2023/01/20 07:25:07;;;;;;;5.43;1.60;;;5.90;99.90;;;;;;5044832;28;20029;-73
2023/01/20 07:27:33;;;;;;;5.97;1.33;;;5.80;99.90;;;;;;5030898;28;20766;-73
2023/01/20 07:29:58;;;;;;;7.65;1.60;;;5.80;99.90;;;;;;5048666;28;20036;-73
2023/01/20 07:32:27;;;;;;;4.78;1.50;;;5.90;99.90;;;;;;5045493;28;20044;-73
2023/01/20 07:34:53;;;;;;;7.00;1.48;;;5.90;99.90;;;;;;5048839;28;20029;-73
2023/01/20 07:37:19;;;;;;;5.88;2.13;;;5.90;99.90;;;;;;5047244;28;20346;-73
2023/01/20 07:39:46;;;;;;;3.95;1.25;;;5.90;99.90;;;;;;5044207;28;20033;-73
2023/01/20 07:42:13;;;;;;;6.28;1.23;;;6.00;99.90;;;;;;5044957;28;20107;-75
2023/01/20 07:44:39;;;;;;;4.43;1.20;;;6.10;99.90;;;;;;5039641;28;20724;-73
2023/01/20 07:47:04;;;;;;;5.30;1.50;;;6.10;99.90;;;;;;5040751;28;20033;-74
2023/01/20 07:49:30;;;;;;;4.22;1.50;;;6.10;99.90;;;;;;5059967;28;20033;-73
2023/01/20 07:51:56;;;;;;;7.50;1.92;;;6.10;99.90;;;;;;5048866;28;20033;-74
2023/01/20 07:54:22;;;;;;;5.53;1.65;;;6.10;99.90;;;;;;5044437;28;20029;-74
2023/01/20 07:56:47;;;;;;;6.80;1.80;;;6.30;99.90;;;;;;5043299;28;20025;-74
2023/01/20 07:59:13;;;;;;;10.43;2.10;;;6.20;99.90;;;;;;5049821;28;20025;-73
2023/01/20 08:01:41;;;;;;;6.88;1.98;;;6.30;99.90;;;;;;5044949;28;20444;-74
2023/01/20 08:04:11;;;;;;;6.45;1.70;;;6.40;99.90;;;;;;5042963;28;20568;-73
2023/01/20 08:06:37;;;;;;;5.70;1.90;;;6.50;99.90;;;;;;5037762;28;20029;-75
2023/01/20 08:09:03;;;;;;;10.55;2.33;;;6.50;99.90;;;;;;5042484;28;20033;-74
2023/01/20 08:11:30;;;;;;;6.30;1.75;;;6.60;99.90;;;;;;5045025;28;20025;-72
2023/01/20 08:13:56;;;;;;;;;;;6.70;99.90;;;;;;5044646;28;20375;-72
2023/01/20 08:16:22;;;;;;;4.78;1.30;;;6.90;99.90;;;;;;5044382;28;19912;-73
2023/01/20 08:18:48;;;;;;;3.47;1.17;;;7.00;99.90;;;;;;5042940;28;20053;-73
2023/01/20 08:21:18;;;;;;;4.57;1.20;;;7.10;99.90;;;;;;5044190;28;20471;-73
2023/01/20 08:23:44;;;;;;;5.65;1.52;;;7.20;99.90;;;;;;5043368;28;20142;-74
2023/01/20 08:26:10;;;;;;;5.32;1.55;;;7.40;99.90;;;;;;5043512;28;20464;-73
2023/01/20 08:28:36;;;;;;;4.50;1.50;;;7.50;99.90;;;;;;5037575;28;20086;-74
2023/01/20 08:31:11;;;;;;;3.58;1.30;;;7.80;99.90;;;;;;5047218;28;20502;-73
2023/01/20 08:33:37;;;;;;;4.30;1.33;;;10.20;99.90;;;;;;5045917;28;20037;-74
2023/01/20 08:36:10;;;;;;;8.73;1.23;;;11.80;98.80;;;;;;5047183;28;20072;-74
2023/01/20 08:38:36;;;;;;;5.13;1.10;;;12.30;95.60;;;;;;5048368;28;20029;-72
2023/01/20 08:41:07;;;;;;;3.70;0.88;;;13.10;95.00;;;;;;5058651;28;20052;-73
2023/01/20 08:43:33;;;;;;;3.67;1.00;;;13.50;93.10;;;;;;5045941;28;20492;-74
2023/01/20 08:46:06;;;;;;;3.97;1.67;;;14.50;93.30;;;;;;5046357;28;20040;-72
2023/01/20 08:48:34;;;;;;;3.45;1.35;;;15.50;92.00;;;;;;5048964;28;20029;-73
2023/01/20 08:51:08;;;;;;;6.05;1.65;;;16.30;91.60;;;;;;5048218;28;20052;-73
2023/01/20 08:53:34;;;;;;;7.90;1.75;;;16.80;91.10;;;;;;5051670;28;20028;-74
2023/01/20 08:56:01;;;;;;;5.72;2.10;;;16.70;90.70;;;;;;5067873;28;20495;-73
2023/01/20 08:58:29;;;;;;;4.97;1.85;;;16.90;90.70;;;;;;5050144;28;20050;-73
2023/01/20 09:00:55;;;;;;;4.93;1.77;;;17.20;90.60;;;;;;5050740;28;20032;-73
2023/01/20 09:03:22;;;;;;;;;;;17.20;90.20;;;;;;5049479;28;20029;-73
2023/01/20 09:05:50;;;;;;;6.25;1.70;;;17.40;90.00;;;;;;5046282;28;20382;-73
2023/01/20 09:08:16;;;;;;;9.45;1.98;;;17.50;90.00;;;;;;5035761;28;20036;-72
2023/01/20 09:10:43;;;;;;;4.70;1.38;;;16.40;89.90;;;;;;5047811;28;20036;-77
2023/01/20 09:13:09;;;;;;;4.57;1.38;;;14.40;90.80;;;;;;5048394;28;20029;-73
2023/01/20 09:15:35;;;;;;;3.58;1.20;;;13.50;91.50;;;;;;5064258;28;20036;-74
2023/01/20 09:18:01;;;;;;;4.85;1.20;;;12.60;92.60;;;;;;5042430;28;20060;-74
2023/01/20 09:20:29;;;;;;;4.28;0.98;;;11.60;94.00;;;;;;5051405;28;20491;-75
2023/01/20 09:22:55;;;;;;;3.22;1.00;;;11.30;95.50;;;;;;5049155;28;20707;-72
2023/01/20 09:25:21;;;;;;;5.05;1.00;;;10.80;96.10;;;;;;5047957;28;20069;-73
2023/01/20 09:27:48;;;;;;;5.30;1.33;;;10.90;96.80;;;;;;5049863;28;20384;-74
2023/01/20 09:30:14;;;;;;;2.78;0.60;;;11.00;97.30;;;;;;5050959;28;20570;-73
2023/01/20 09:32:40;;;;;;;4.13;0.60;;;10.70;98.00;;;;;;5028817;28;20029;-75
2023/01/20 09:35:06;;;;;;;4.32;0.90;;;10.80;98.20;;;;;;5051210;28;20017;-74
2023/01/20 09:46:23;;;;;;;5.68;0.88;;;11.30;97.20;;;;;;5049370;28;20086;-73
2023/01/20 09:55:21;;;;;;;4.30;1.60;;;12.30;95.20;;;;;;5048518;28;20646;-74
2023/01/20 09:57:57;;;;;;;5.43;1.05;;;12.30;95.00;;;;;;5049699;28;20125;-73
2023/01/20 10:00:27;;;;;;;2.78;1.13;;;12.10;95.30;;;;;;5065969;28;20082;-74
2023/01/20 10:03:04;;;;;;;6.00;0.93;;;12.40;95.30;;;;;;5051023;28;20102;-75
2023/01/20 10:05:35;;;;;;;3.05;0.63;;;12.30;94.50;;;;;;5051540;28;20182;-74
2023/01/20 10:08:07;;;;;;;4.32;1.13;;;12.40;94.00;;;;;;5049287;28;20040;-74
2023/01/20 10:11:15;;;;;;;2.72;1.17;;;12.50;94.50;;;;;;5049288;28;20391;-74
2023/01/20 10:13:56;;;;;;;3.53;0.80;;;13.00;93.50;;;;;;5043716;28;20048;-74
2023/01/20 10:16:28;;;;;;;4.13;1.05;;;13.10;93.90;;;;;;5031485;28;20045;-73
2023/01/20 10:19:03;;;;;;;2.88;0.82;;;13.10;94.70;;;;;;5048210;28;20033;-73
2023/01/20 10:21:43;;;;;;;4.60;1.40;;;13.50;95.40;;;;;;5063996;28;20102;-73
2023/01/20 10:24:17;;;;;;;6.45;1.50;;;13.30;95.90;;;;;;5061592;28;20032;-73
2023/01/20 10:27:00;;;;;;;14.75;2.03;;;13.00;96.20;;;;;;5048562;28;20029;-74
2023/01/20 10:29:50;;;;;;;9.00;1.38;;;13.00;96.70;;;;;;5047991;28;20029;-73
2023/01/20 10:32:26;;;;;;;18.58;2.78;;;13.00;96.70;;;;;;5050837;28;20021;-73
2023/01/20 10:34:55;;;;;;;10.52;1.55;;;12.70;96.70;;;;;;5046950;28;20032;-73
2023/01/20 10:37:22;;;;;;;9.18;1.65;;;12.90;96.90;;;;;;5063724;28;20028;-73
2023/01/20 10:39:53;;;;;;;7.30;1.63;;;13.20;96.30;;;;;;5045684;28;20057;-73
2023/01/20 10:42:19;;;;;;;4.63;1.70;;;12.60;96.90;;;;;;5042068;28;20068;-74
2023/01/20 10:44:48;;;;;;;11.23;2.45;;;12.90;96.80;;;;;;5029588;28;20078;-73
2023/01/20 10:47:22;;;;;;;8.75;3.13;;;12.90;96.50;;;;;;5049394;28;20396;-75
2023/01/20 10:50:06;;;;;;;13.95;3.05;;;13.50;96.20;;;;;;5049610;28;20502;-74
2023/01/20 10:52:50;;;;;;;8.48;2.50;;;13.20;96.10;;;;;;5064683;28;20032;-74
2023/01/20 10:55:37;;;;;;;7.78;3.28;;;13.10;95.90;;;;;;5047383;28;20071;-73
2023/01/20 10:58:24;;;;;;;8.30;3.50;;;12.40;96.50;;;;;;5044189;28;20032;-74
2023/01/20 11:00:51;;;;;;;8.57;3.83;;;12.60;96.80;;;;;;5045181;28;20557;-72
2023/01/20 11:03:22;;;;;;;9.43;3.60;;;13.00;96.20;;;;;;5048709;28;20036;-74
2023/01/20 11:05:50;;;;;;;8.80;3.65;;;13.30;94.90;;;;;;5047573;28;20033;-74
2023/01/20 11:08:26;;;;;;;12.45;3.58;;;14.10;94.70;;;;;;5048267;28;20431;-73
2023/01/20 11:11:12;;;;;;;8.40;3.75;;;14.40;92.80;;;;;;5042967;28;20165;-73
2023/01/20 11:13:38;;;;;;;7.72;3.22;;;14.10;94.40;;;;;;5045665;28;20029;-73
2023/01/20 11:16:13;;;;;;;9.30;3.15;;;14.40;92.80;;;;;;5045941;28;20190;-77
2023/01/20 11:18:38;;;;;;;5.28;1.10;;;14.90;90.10;;;;;;5048350;28;20040;-76
2023/01/20 11:21:11;;;;;;;4.07;1.70;;;15.20;81.30;;;;;;5047100;28;20017;-76
2023/01/20 11:23:50;;;;;;;18.20;3.50;;;15.00;84.30;;;;;;5048475;28;20033;-76
2023/01/20 11:26:34;;;;;;;18.23;2.83;;;14.60;94.20;;;;;;5066028;28;20021;-76
2023/01/20 11:29:28;;;;;;;11.60;1.98;;;14.40;95.00;;;;;;5048462;28;20044;-77
2023/01/20 11:31:55;;;;;;;10.27;2.35;;;14.00;96.00;;;;;;5047516;28;20498;-76
2023/01/20 11:34:25;;;;;;;7.00;2.10;;;15.00;95.40;;;;;;5048341;28;20078;-77
2023/01/20 11:37:16;;;;;;;9.90;2.05;;;14.90;94.90;;;;;;5049575;28;20052;-77
2023/01/20 11:39:43;;;;;;;7.40;1.80;;;14.60;94.40;;;;;;5048393;28;20037;-77
2023/01/20 11:42:27;;;;;;;7.00;2.15;;;14.90;94.90;;;;;;5048594;28;20492;-78
2023/01/20 11:45:00;;;;;;;12.95;2.10;;;15.50;94.20;;;;;;5047795;28;20031;-76
2023/01/20 11:47:28;;;;;;;8.57;2.90;;;15.80;93.70;;;;;;5063115;28;20396;-75
2023/01/20 11:50:03;;;;;;;6.10;2.25;;;15.40;93.70;;;;;;5046296;28;20032;-76
2023/01/20 11:52:32;;;;;;;4.43;1.58;;;15.70;93.30;;;;;;5049588;28;20035;-76
2023/01/20 11:55:16;;;;;;;6.88;2.53;;;16.10;93.30;;;;;;5048969;28;20078;-77
2023/01/20 11:57:57;;;;;;;7.82;2.40;;;16.10;93.00;;;;;;5048054;28;20021;-76
2023/01/20 12:00:35;;;;;;;4.47;1.67;;;15.50;93.40;;;;;;5048508;28;20075;-77
2023/01/20 12:03:16;;;;;;;8.70;1.83;;;15.50;93.10;;;;;;5046840;28;20511;-75
2023/01/20 12:06:00;;;;;;;3.17;1.33;;;16.30;92.70;;;;;;5043393;28;20044;-75
2023/01/20 12:08:32;;;;;;;5.63;2.08;;;16.80;92.10;;;;;;5042992;28;20032;-76
2023/01/20 12:11:03;;;;;;;4.82;1.33;;;17.10;92.20;;;;;;5048518;28;20111;-77
2023/01/20 12:14:18;;;;;;;4.65;1.38;;;15.20;92.30;;;;;;5047025;28;20506;-76
2023/01/20 12:16:26;;;;;;;7.18;1.30;;;16.10;92.50;;;;;;5045232;28;20033;-76
2023/01/20 12:18:56;;;;;;;5.55;1.42;;;16.30;92.00;;;;;;5048790;28;20036;-76
2023/01/20 12:21:32;;;;;;;5.32;1.70;;;17.00;91.60;;;;;;5057939;28;20025;-76
2023/01/20 12:25:06;;;;;;;4.47;1.88;;;16.50;92.50;;;;;;5042864;28;20345;-76
2023/01/20 12:27:24;;;;;;;4.10;1.38;;;16.80;91.40;;;;;;5050861;28;20033;-76
2023/01/20 12:29:57;;;;;;;5.30;1.55;;;16.80;91.10;;;;;;5051808;28;20037;-77
2023/01/20 12:32:23;;;;;;;5.25;1.65;;;17.30;91.40;;;;;;5051993;28;20025;-75
2023/01/20 12:34:49;;;;;;;6.13;2.35;;;17.50;90.90;;;;;;5056226;28;20384;-75
2023/01/20 12:37:54;;;;;;;5.82;1.63;;;18.10;90.60;;;;;;5054021;28;20031;-78
2023/01/20 12:40:55;;;;;;;4.05;1.63;;;18.50;88.10;;;;;;5055614;28;20552;-77
2023/01/20 12:43:21;;;;;;;6.28;1.77;;;16.20;86.60;;;;;;5041167;28;20519;-78
2023/01/20 12:46:07;;;;;;;9.20;1.75;;;16.90;88.80;;;;;;5054248;28;20052;-76
2023/01/20 12:49:06;;;;;;;5.38;1.75;;;18.00;84.00;;;;;;5059363;28;20025;-77
2023/01/20 12:51:47;;;;;;;5.43;1.35;;;18.50;83.30;;;;;;5051986;28;20021;-76
2023/01/20 12:54:40;;;;;;;7.55;1.65;;;18.70;81.40;;;;;;5053730;28;20025;-76
2023/01/20 12:57:15;;;;;;;7.55;2.78;;;18.90;80.80;;;;;;5050207;28;20055;-77
2023/01/20 13:00:08;;;;;;;5.25;1.20;;;18.60;81.40;;;;;;5048333;28;20037;-76
2023/01/20 13:03:06;;;;;;;5.30;1.50;;;14.80;82.80;;;;;;5050310;28;20056;-77
2023/01/20 13:05:44;;;;;;;4.95;1.80;;;17.10;84.50;;;;;;5050202;28;20036;-76
2023/01/20 13:08:35;;;;;;;5.50;2.35;;;17.90;84.30;;;;;;5049692;28;20033;-75
2023/01/20 13:11:14;;;;;;;6.47;2.10;;;16.10;87.30;;;;;;5052875;28;20056;-77
2023/01/20 13:13:44;;;;;;;8.63;2.42;;;16.90;86.70;;;;;;5046336;28;20422;-76
2023/01/20 13:16:29;;;;;;;6.20;1.13;;;18.30;83.30;;;;;;5049842;28;20705;-77
2023/01/20 13:19:18;;;;;;;5.88;1.70;;;17.70;82.50;;;;;;5044463;28;20040;-75
2023/01/20 13:21:48;;;;;;;6.72;1.80;;;17.10;83.20;;;;;;5045116;28;20025;-77
2023/01/20 13:24:23;;;;;;;4.80;1.15;;;17.40;82.60;;;;;;5049046;28;20111;-77
2023/01/20 13:26:49;;;;;;;7.35;1.63;;;16.70;82.80;;;;;;5049750;28;20189;-77
2023/01/20 13:29:40;;;;;;;2.67;1.00;;;16.60;81.80;;;;;;5043101;28;20033;-77